Terminal Aerodrome Forecast
Issued by NWS Sioux Falls, SD

Home | Current Version | Previous Version | Graphics & Text | Print | Product List | Glossary On
Versions: 1 2 3 4 5 6 7 8 9 10 11 12 13 14 15
354
FTUS43 KFSD 012320
TAFHON
TAF
KHON 012320Z 0200/0224 03009KT P6SM SKC
     FM020200 VRB03KT P6SM SKC
     FM021500 26006KT P6SM SCT040 BKN150=

USA.gov is the U.S. government's official web portal to all federal, state and local government web resources and services.